Massape, Brazil
Current Conditions -  °F | °C
As of 6:15 AM on Thursday 23 Oct 2014 (Local Time) from SBPB Reporting Station
Few Clouds Few Clouds  
Wind Chill: 79°   Ceiling: Unl
Heat Index: 82°   Visibility: 6mi
Dew Point: 73°   Wind: 13mph
Humidity: 83%   Direction: 120°ESE
Pressure: 29.88"   Gusts: NA
Location:  3.52°S, 40.34°W
Report Text: SBPB 230915Z 12011KT 9999 FEW017 26/23 Q1012
Loading
Personal Weather Stations






























Interactive Weather Map
Tropical Storm Tracking
New forecast layout! Learn more

10-Day Weather Forecast

Advertisements
Track Severe Weather on mobile